createdAt,value
2022-08-26T00:01:32.269Z,11.90
2022-08-26T00:04:01.718Z,12.23
2022-08-26T00:06:28.625Z,11.80
2022-08-26T00:08:55.289Z,11.07
2022-08-26T00:11:26.312Z,10.70
2022-08-26T00:13:55.164Z,11.70
2022-08-26T00:16:23.604Z,11.70
2022-08-26T00:18:50.496Z,10.90
2022-08-26T00:21:17.256Z,11.93
2022-08-26T00:23:44.790Z,11.37
2022-08-26T00:26:11.967Z,9.60
2022-08-26T00:28:40.273Z,11.50
2022-08-26T00:31:07.626Z,10.40
2022-08-26T00:33:38.482Z,12.30
2022-08-26T00:36:05.898Z,9.73
2022-08-26T00:38:32.962Z,11.03
2022-08-26T00:41:00.387Z,11.30
2022-08-26T00:43:27.283Z,11.60
2022-08-26T00:46:21.658Z,10.47
2022-08-26T00:48:52.129Z,11.43
2022-08-26T00:51:23.561Z,12.10
2022-08-26T00:53:54.020Z,12.33
2022-08-26T00:56:24.048Z,11.87
2022-08-26T00:58:51.740Z,10.90
2022-08-26T01:01:19.120Z,10.83
2022-08-26T01:03:49.785Z,8.90
2022-08-26T01:06:17.073Z,10.13
2022-08-26T01:08:43.777Z,11.07
2022-08-26T01:11:11.881Z,10.70
2022-08-26T01:13:39.873Z,11.37
2022-08-26T01:16:10.525Z,10.57
2022-08-26T01:18:37.284Z,10.20
2022-08-26T01:21:32.095Z,10.30
2022-08-26T01:24:00.125Z,11.67
2022-08-26T01:26:32.755Z,10.87
2022-08-26T01:29:02.951Z,10.77
2022-08-26T01:31:35.240Z,11.10
2022-08-26T01:34:12.818Z,11.57
2022-08-26T01:36:40.475Z,11.20
2022-08-26T01:39:09.419Z,11.53
2022-08-26T01:41:38.618Z,11.20
2022-08-26T01:44:09.800Z,10.93
2022-08-26T01:46:37.138Z,11.23
2022-08-26T01:49:06.468Z,9.20
2022-08-26T01:51:37.347Z,9.70
2022-08-26T01:54:06.446Z,10.70
2022-08-26T01:56:36.593Z,10.23
2022-08-26T01:59:06.901Z,9.17
2022-08-26T02:01:36.443Z,10.30
2022-08-26T02:04:17.634Z,10.37
2022-08-26T02:06:45.110Z,9.10
2022-08-26T02:09:12.281Z,8.00
2022-08-26T02:11:39.290Z,11.10
2022-08-26T02:14:11.922Z,9.00
2022-08-26T02:16:42.260Z,10.40
2022-08-26T02:19:16.967Z,9.50
2022-08-26T02:21:46.223Z,10.10
2022-08-26T02:24:27.386Z,10.27
2022-08-26T02:26:56.212Z,10.63
2022-08-26T02:29:35.253Z,9.27
2022-08-26T02:32:02.049Z,10.60
2022-08-26T02:34:33.044Z,8.50
2022-08-26T02:37:02.244Z,10.37
2022-08-26T02:39:31.307Z,8.13
2022-08-26T02:41:59.184Z,10.43
2022-08-26T02:44:27.231Z,9.70
2022-08-26T02:46:54.723Z,10.47
2022-08-26T02:49:23.581Z,10.17
2022-08-26T02:51:51.186Z,11.70
2022-08-26T02:54:23.962Z,10.20
2022-08-26T02:56:51.422Z,11.00
2022-08-26T02:59:18.542Z,13.10
2022-08-26T03:01:45.442Z,13.87
2022-08-26T03:04:12.730Z,11.33
2022-08-26T03:06:41.414Z,11.60
2022-08-26T03:09:09.034Z,11.40
2022-08-26T03:11:36.714Z,11.63
2022-08-26T03:14:04.606Z,11.43
2022-08-26T03:16:35.955Z,10.90
2022-08-26T03:19:04.527Z,11.60
2022-08-26T03:21:32.985Z,10.43
2022-08-26T03:24:00.496Z,9.80
2022-08-26T03:26:28.384Z,9.43
2022-08-26T03:29:14.763Z,9.87
2022-08-26T03:31:42.025Z,9.57
2022-08-26T03:34:09.655Z,9.40
2022-08-26T03:36:38.704Z,9.60
2022-08-26T03:39:06.280Z,10.30
2022-08-26T03:41:34.967Z,11.63
2022-08-26T03:44:02.461Z,10.70
2022-08-26T03:46:33.100Z,10.60
2022-08-26T03:49:01.585Z,9.43
2022-08-26T03:51:29.016Z,10.63
2022-08-26T03:53:56.117Z,11.17
2022-08-26T03:56:23.935Z,10.20
2022-08-26T03:58:50.925Z,10.80
2022-08-26T04:01:17.793Z,10.80
2022-08-26T04:03:57.699Z,11.40
2022-08-26T04:06:32.921Z,10.17
2022-08-26T04:09:02.265Z,8.40
2022-08-26T04:11:34.104Z,10.00
2022-08-26T04:14:05.075Z,10.00
2022-08-26T04:16:31.964Z,9.47
2022-08-26T04:18:59.079Z,9.30
2022-08-26T04:21:26.559Z,10.20
2022-08-26T04:23:54.194Z,10.47
2022-08-26T04:26:22.506Z,10.53
2022-08-26T04:28:51.182Z,9.33
2022-08-26T04:31:18.927Z,10.80
2022-08-26T04:33:49.572Z,10.87
2022-08-26T04:36:17.509Z,10.03
2022-08-26T04:38:46.885Z,9.00
2022-08-26T04:41:15.607Z,10.90
2022-08-26T04:43:45.449Z,10.07
2022-08-26T04:46:16.100Z,10.40
2022-08-26T04:48:42.837Z,11.93
2022-08-26T04:51:10.014Z,11.20
2022-08-26T04:53:37.518Z,10.00
2022-08-26T04:56:05.090Z,11.47
2022-08-26T04:58:32.397Z,11.97
2022-08-26T05:00:59.665Z,10.33
2022-08-26T05:03:27.366Z,10.00
2022-08-26T05:05:58.560Z,11.90
2022-08-26T05:08:25.694Z,10.17
2022-08-26T05:10:57.198Z,11.53
2022-08-26T05:13:26.462Z,10.53
2022-08-26T05:15:54.348Z,11.40
2022-08-26T05:18:23.217Z,11.37
2022-08-26T05:20:53.957Z,11.60
2022-08-26T05:23:23.017Z,10.17
2022-08-26T05:25:55.798Z,10.97
2022-08-26T05:28:25.849Z,10.80
2022-08-26T05:30:52.695Z,9.30
2022-08-26T05:33:19.647Z,10.17
2022-08-26T05:35:47.097Z,10.47
2022-08-26T05:38:20.421Z,9.93
2022-08-26T05:40:52.605Z,8.10
2022-08-26T05:43:20.513Z,9.93
2022-08-26T05:45:49.415Z,9.50
2022-08-26T05:48:18.672Z,8.17
2022-08-26T05:50:53.970Z,8.67
2022-08-26T05:53:23.994Z,9.17
2022-08-26T05:55:54.121Z,8.70
2022-08-26T05:58:22.610Z,7.60
2022-08-26T06:01:05.446Z,6.43
2022-08-26T06:03:35.999Z,8.27
2022-08-26T06:06:15.823Z,7.33
2022-08-26T06:08:47.686Z,7.47
2022-08-26T06:11:18.856Z,7.40
2022-08-26T06:13:46.565Z,7.10
2022-08-26T06:16:15.768Z,8.00
2022-08-26T06:18:45.865Z,7.57
2022-08-26T06:21:17.978Z,6.20
2022-08-26T06:24:05.707Z,6.73
2022-08-26T06:26:33.155Z,7.17
2022-08-26T06:29:00.535Z,7.20
2022-08-26T06:31:29.002Z,7.40
2022-08-26T06:33:56.173Z,6.80
2022-08-26T06:36:25.478Z,7.37
2022-08-26T06:38:54.133Z,6.87
2022-08-26T06:41:22.825Z,6.80
2022-08-26T06:43:50.481Z,7.10
2022-08-26T06:46:19.630Z,7.50
2022-08-26T06:48:46.526Z,7.00
2022-08-26T06:51:25.449Z,6.93
2022-08-26T06:53:55.160Z,7.60
2022-08-26T06:56:24.926Z,7.13
2022-08-26T06:58:52.481Z,7.10
2022-08-26T07:01:27.996Z,7.33
2022-08-26T07:03:57.955Z,6.60
2022-08-26T07:06:27.346Z,8.10
2022-08-26T07:09:01.264Z,7.20
2022-08-26T07:11:30.375Z,8.00
2022-08-26T07:13:58.910Z,8.30
2022-08-26T07:16:28.193Z,8.07
2022-08-26T07:18:56.882Z,8.20
2022-08-26T07:21:24.604Z,8.77
2022-08-26T07:23:53.927Z,8.93
2022-08-26T07:26:26.008Z,8.80
2022-08-26T07:28:56.572Z,8.90
2022-08-26T07:31:26.429Z,10.50
2022-08-26T07:33:53.907Z,10.30
2022-08-26T07:36:22.130Z,10.30
2022-08-26T07:38:49.381Z,10.13
2022-08-26T07:41:20.044Z,10.13
2022-08-26T07:43:46.883Z,8.80
2022-08-26T07:46:20.805Z,10.33
2022-08-26T07:48:54.592Z,9.87
2022-08-26T07:51:22.814Z,8.50
2022-08-26T07:53:52.334Z,9.90
2022-08-26T07:56:20.931Z,9.60
2022-08-26T07:58:51.592Z,9.00
2022-08-26T08:01:26.767Z,10.67
2022-08-26T08:03:54.307Z,11.10
2022-08-26T08:06:26.962Z,10.50
2022-08-26T08:08:54.465Z,9.90
2022-08-26T08:11:22.177Z,10.20
2022-08-26T08:13:50.016Z,10.10
2022-08-26T08:16:24.977Z,9.60
2022-08-26T08:18:53.538Z,8.97
2022-08-26T08:21:21.618Z,10.87
2022-08-26T08:23:49.049Z,9.90
2022-08-26T08:26:16.883Z,8.63
2022-08-26T08:28:43.762Z,8.77
2022-08-26T08:31:21.560Z,9.77
2022-08-26T08:34:00.062Z,9.03
2022-08-26T08:36:26.929Z,9.23
2022-08-26T08:39:02.679Z,9.47
2022-08-26T08:41:38.493Z,8.67
2022-08-26T08:44:20.975Z,8.67
2022-08-26T08:46:58.195Z,8.30
2022-08-26T08:49:25.927Z,9.57
2022-08-26T08:52:27.729Z,8.50
2022-08-26T08:54:56.295Z,9.53
2022-08-26T08:57:49.245Z,9.17
2022-08-26T09:00:30.275Z,10.73
2022-08-26T09:03:08.087Z,8.10
2022-08-26T09:05:43.446Z,8.03
2022-08-26T09:08:21.157Z,10.00
2022-08-26T09:10:53.987Z,9.30
2022-08-26T09:13:25.267Z,9.33
2022-08-26T09:16:15.711Z,8.57
2022-08-26T09:18:54.681Z,9.60
2022-08-26T09:21:26.102Z,10.00
2022-08-26T09:23:56.679Z,11.20
2022-08-26T09:26:30.631Z,8.20
2022-08-26T09:29:11.081Z,10.13
2022-08-26T09:31:41.454Z,8.83
2022-08-26T09:34:27.407Z,9.70
2022-08-26T09:36:55.362Z,9.87
2022-08-26T09:39:27.833Z,8.20
2022-08-26T09:42:33.307Z,8.50
2022-08-26T09:45:04.852Z,9.00
2022-08-26T09:47:45.143Z,9.13
2022-08-26T09:50:32.737Z,9.00
2022-08-26T09:53:28.495Z,9.40
2022-08-26T09:56:16.935Z,9.10
2022-08-26T09:58:47.394Z,8.70
2022-08-26T10:01:23.491Z,8.90
2022-08-26T10:03:51.490Z,7.97
2022-08-26T10:06:21.159Z,9.00
2022-08-26T10:08:52.272Z,8.70
2022-08-26T10:11:24.223Z,8.27
2022-08-26T10:14:18.374Z,8.77
2022-08-26T10:16:53.177Z,9.80
2022-08-26T10:19:25.355Z,9.73
2022-08-26T10:22:14.358Z,10.30
2022-08-26T10:24:48.276Z,9.10
2022-08-26T10:27:25.239Z,10.17
2022-08-26T10:30:00.528Z,9.60
2022-08-26T10:32:41.258Z,10.30
2022-08-26T10:35:13.247Z,10.00
2022-08-26T10:37:49.392Z,10.20
2022-08-26T10:40:29.321Z,10.57
2022-08-26T10:43:11.398Z,9.90
2022-08-26T10:45:51.267Z,9.80
2022-08-26T10:48:47.996Z,10.53
2022-08-26T10:51:26.908Z,10.93
2022-08-26T10:54:03.979Z,9.00
2022-08-26T10:56:53.946Z,10.90
2022-08-26T10:59:28.935Z,9.83
2022-08-26T11:02:24.645Z,11.73
2022-08-26T11:05:03.507Z,10.67
2022-08-26T11:07:36.625Z,11.60
2022-08-26T11:10:09.665Z,9.73
2022-08-26T11:12:36.267Z,10.40
2022-08-26T11:15:13.607Z,11.07
2022-08-26T11:17:46.712Z,10.90
2022-08-26T11:20:45.888Z,11.27
2022-08-26T11:23:12.685Z,11.30
2022-08-26T11:25:58.928Z,10.53
2022-08-26T11:28:50.153Z,11.00
2022-08-26T11:31:26.096Z,10.57
2022-08-26T11:33:56.981Z,11.20
2022-08-26T11:36:38.550Z,11.80
2022-08-26T11:39:30.620Z,9.90
2022-08-26T11:42:15.461Z,9.80
2022-08-26T11:44:49.268Z,8.40
2022-08-26T11:47:25.009Z,8.27
2022-08-26T11:50:06.919Z,8.83
2022-08-26T11:52:33.619Z,9.23
2022-08-26T11:55:14.326Z,10.20
2022-08-26T11:57:48.905Z,9.17
2022-08-26T12:00:22.493Z,9.33
2022-08-26T12:02:51.259Z,8.20
2022-08-26T12:05:31.178Z,8.13
2022-08-26T12:08:02.837Z,9.60
2022-08-26T12:10:33.575Z,11.07
2022-08-26T12:13:02.255Z,9.97
2022-08-26T12:15:31.144Z,8.30
2022-08-26T12:17:59.283Z,11.63
2022-08-26T12:20:45.739Z,10.60
2022-08-26T12:23:24.590Z,7.10
2022-08-26T12:25:54.129Z,7.40
2022-08-26T12:28:21.635Z,6.83
2022-08-26T12:31:05.762Z,8.00
2022-08-26T12:33:35.986Z,15.03
2022-08-26T12:36:04.943Z,7.60
2022-08-26T12:38:35.143Z,10.20
2022-08-26T12:41:01.826Z,8.33
2022-08-26T12:43:43.228Z,8.10
2022-08-26T12:46:17.908Z,7.50
2022-08-26T12:48:49.478Z,8.00
2022-08-26T12:51:32.862Z,6.93
2022-08-26T12:53:59.816Z,6.87
2022-08-26T12:56:33.960Z,6.77
2022-08-26T12:59:19.001Z,6.77
2022-08-26T13:01:46.696Z,5.00
2022-08-26T13:04:32.331Z,5.93
2022-08-26T13:07:25.051Z,4.93
2022-08-26T13:09:54.182Z,5.30
2022-08-26T13:12:40.985Z,4.97
2022-08-26T13:15:08.219Z,5.43
2022-08-26T13:17:36.139Z,6.40
2022-08-26T13:20:04.558Z,6.10
2022-08-26T13:22:31.891Z,5.60
2022-08-26T13:24:58.601Z,4.60
2022-08-26T13:27:27.278Z,5.67
2022-08-26T13:29:55.108Z,5.03
2022-08-26T13:32:22.538Z,4.93
2022-08-26T13:34:54.025Z,4.90
2022-08-26T13:37:22.304Z,4.90
2022-08-26T13:40:01.632Z,4.73
2022-08-26T13:42:29.307Z,3.77
2022-08-26T13:44:58.103Z,4.83
2022-08-26T13:47:25.964Z,4.20
2022-08-26T13:49:55.165Z,3.93
2022-08-26T13:52:30.102Z,5.10
2022-08-26T13:55:00.186Z,3.70
2022-08-26T13:57:28.525Z,7.43
2022-08-26T13:59:57.022Z,5.10
2022-08-26T14:02:23.730Z,4.40
2022-08-26T14:04:50.633Z,6.97
2022-08-26T14:07:17.728Z,4.97
2022-08-26T14:09:44.493Z,4.27
2022-08-26T14:12:11.274Z,5.00
2022-08-26T14:14:37.977Z,5.93
2022-08-26T14:17:04.827Z,5.10
2022-08-26T14:19:31.831Z,8.30
2022-08-26T14:22:00.665Z,7.00
2022-08-26T14:24:27.895Z,5.00
2022-08-26T14:26:54.535Z,4.50
2022-08-26T14:29:21.207Z,5.90
2022-08-26T14:31:48.300Z,4.80
2022-08-26T14:34:15.220Z,4.70
2022-08-26T14:36:41.965Z,4.40
2022-08-26T14:39:11.418Z,4.40
2022-08-26T14:41:53.916Z,5.23
2022-08-26T14:44:25.700Z,6.40
2022-08-26T14:46:53.423Z,4.63
2022-08-26T14:49:23.023Z,4.67
2022-08-26T14:51:49.734Z,4.47
2022-08-26T14:54:17.812Z,6.20
2022-08-26T14:57:17.278Z,4.20
2022-08-26T14:59:50.188Z,5.17
2022-08-26T15:02:27.815Z,4.70
2022-08-26T15:05:00.771Z,4.67
2022-08-26T15:07:27.459Z,5.07
2022-08-26T15:09:54.113Z,4.10
2022-08-26T15:12:21.723Z,4.67
2022-08-26T15:14:48.415Z,4.13
2022-08-26T15:17:15.126Z,5.50
2022-08-26T15:19:41.779Z,4.73
2022-08-26T15:22:08.739Z,5.07
2022-08-26T15:24:36.502Z,4.90
2022-08-26T15:27:03.363Z,4.50
2022-08-26T15:29:30.206Z,4.80
2022-08-26T15:31:58.919Z,4.60
2022-08-26T15:34:26.924Z,4.50
2022-08-26T15:36:53.996Z,4.90
2022-08-26T15:39:21.242Z,5.60
2022-08-26T15:41:47.951Z,5.43
2022-08-26T15:44:18.474Z,5.50
2022-08-26T15:46:47.008Z,6.03
2022-08-26T15:49:18.447Z,5.33
2022-08-26T15:51:47.866Z,5.80
2022-08-26T15:54:16.971Z,6.03
2022-08-26T15:56:44.116Z,6.57
2022-08-26T15:59:11.629Z,6.17
2022-08-26T16:01:39.179Z,5.70
2022-08-26T16:04:06.419Z,6.63
2022-08-26T16:06:35.762Z,7.77
2022-08-26T16:09:03.147Z,8.13
2022-08-26T16:11:29.906Z,6.93
2022-08-26T16:13:57.357Z,5.20
2022-08-26T16:16:24.749Z,5.07
2022-08-26T16:18:51.529Z,5.20
2022-08-26T16:21:20.924Z,5.20
2022-08-26T16:23:47.967Z,6.20
2022-08-26T16:26:17.564Z,5.30
2022-08-26T16:28:44.357Z,5.80
2022-08-26T16:31:11.472Z,5.93
2022-08-26T16:33:38.456Z,6.07
2022-08-26T16:36:06.077Z,5.20
2022-08-26T16:38:33.323Z,5.97
2022-08-26T16:41:01.118Z,5.47
2022-08-26T16:43:28.321Z,5.20
2022-08-26T16:45:55.046Z,6.30
2022-08-26T16:48:23.330Z,5.50
2022-08-26T16:50:50.816Z,6.80
2022-08-26T16:53:18.702Z,6.10
2022-08-26T16:55:47.666Z,5.37
2022-08-26T16:58:14.882Z,5.50
2022-08-26T17:00:41.798Z,6.30
2022-08-26T17:03:08.697Z,5.97
2022-08-26T17:05:36.252Z,5.87
2022-08-26T17:08:04.632Z,5.50
2022-08-26T17:10:32.776Z,6.30
2022-08-26T17:13:00.272Z,5.90
2022-08-26T17:15:27.475Z,5.53
2022-08-26T17:17:54.745Z,6.00
2022-08-26T17:20:23.349Z,6.10
2022-08-26T17:22:51.670Z,5.23
2022-08-26T17:25:26.754Z,6.27
2022-08-26T17:27:53.823Z,6.47
2022-08-26T17:30:21.406Z,5.67
2022-08-26T17:32:48.649Z,5.17
2022-08-26T17:35:15.670Z,5.40
2022-08-26T17:37:42.565Z,7.03
2022-08-26T17:40:12.554Z,6.60
2022-08-26T17:42:40.040Z,6.90
2022-08-26T17:45:08.072Z,7.60
2022-08-26T17:47:35.053Z,7.00
2022-08-26T17:50:02.681Z,6.47
2022-08-26T17:52:30.383Z,6.73
2022-08-26T17:54:57.721Z,7.47
2022-08-26T17:57:25.145Z,6.53
2022-08-26T17:59:52.765Z,6.63
2022-08-26T18:02:20.964Z,7.03
2022-08-26T18:04:47.842Z,7.20
2022-08-26T18:07:15.551Z,7.70
2022-08-26T18:09:42.590Z,7.57
2022-08-26T18:12:09.862Z,6.67
2022-08-26T18:14:37.127Z,8.10
2022-08-26T18:17:04.314Z,8.30
2022-08-26T18:19:31.373Z,7.40
2022-08-26T18:21:58.763Z,6.60
2022-08-26T18:24:25.617Z,7.80
2022-08-26T18:26:52.310Z,6.87
2022-08-26T18:29:20.140Z,7.20
2022-08-26T18:31:46.957Z,7.20
2022-08-26T18:34:15.493Z,7.00
2022-08-26T18:36:43.757Z,6.23
2022-08-26T18:39:12.276Z,6.63
2022-08-26T18:41:45.691Z,6.43
2022-08-26T18:44:14.245Z,7.40
2022-08-26T18:46:41.506Z,7.50
2022-08-26T18:49:10.021Z,7.77
2022-08-26T18:51:38.040Z,6.70
2022-08-26T18:54:06.912Z,7.63
2022-08-26T18:56:36.226Z,7.57
2022-08-26T18:59:04.135Z,6.87
2022-08-26T19:01:31.787Z,7.97
2022-08-26T19:04:00.996Z,6.63
2022-08-26T19:06:31.531Z,6.00
2022-08-26T19:08:58.753Z,6.50
2022-08-26T19:11:31.794Z,7.97
2022-08-26T19:14:00.592Z,7.43
2022-08-26T19:16:27.839Z,7.30
2022-08-26T19:18:55.706Z,7.00
2022-08-26T19:21:23.586Z,6.83
2022-08-26T19:23:50.925Z,8.27
2022-08-26T19:26:17.619Z,9.33
2022-08-26T19:28:44.357Z,7.63
2022-08-26T19:31:12.075Z,7.43
2022-08-26T19:33:40.314Z,8.70
2022-08-26T19:36:11.445Z,8.13
2022-08-26T19:38:41.626Z,5.93
2022-08-26T19:41:21.483Z,5.90
2022-08-26T19:43:48.934Z,3.90
2022-08-26T19:46:18.534Z,4.10
2022-08-26T19:48:46.185Z,3.87
2022-08-26T19:51:18.823Z,3.80
2022-08-26T19:53:47.184Z,3.80
2022-08-26T19:56:14.819Z,3.30
2022-08-26T19:58:42.119Z,3.53
2022-08-26T20:01:09.482Z,3.67
2022-08-26T20:03:37.002Z,4.13
2022-08-26T20:06:06.172Z,3.90
2022-08-26T20:08:34.008Z,4.13
2022-08-26T20:11:02.948Z,4.17
2022-08-26T20:13:29.639Z,4.33
2022-08-26T20:15:56.556Z,3.80
2022-08-26T20:18:41.698Z,3.90
2022-08-26T20:21:26.755Z,3.83
2022-08-26T20:23:54.653Z,4.50
2022-08-26T20:26:21.459Z,4.07
2022-08-26T20:28:48.149Z,3.47
2022-08-26T20:31:19.413Z,3.53
2022-08-26T20:33:46.841Z,4.50
2022-08-26T20:36:14.804Z,3.90
2022-08-26T20:38:41.526Z,4.53
2022-08-26T20:41:08.315Z,4.57
2022-08-26T20:43:35.104Z,4.17
2022-08-26T20:46:01.861Z,3.73
2022-08-26T20:48:28.645Z,4.20
2022-08-26T20:50:59.901Z,5.23
2022-08-26T20:53:28.811Z,5.47
2022-08-26T20:56:03.827Z,3.70
2022-08-26T20:58:30.584Z,4.97
2022-08-26T21:00:57.717Z,4.27
2022-08-26T21:03:24.863Z,4.60
2022-08-26T21:05:52.202Z,4.20
2022-08-26T21:08:18.928Z,5.00
2022-08-26T21:10:46.082Z,4.40
2022-08-26T21:13:13.350Z,3.80
2022-08-26T21:15:40.006Z,3.37
2022-08-26T21:18:07.193Z,4.13
2022-08-26T21:20:34.139Z,4.00
2022-08-26T21:23:00.807Z,3.80
2022-08-26T21:25:27.486Z,3.93
2022-08-26T21:27:54.186Z,4.63
2022-08-26T21:30:20.901Z,4.50
2022-08-26T21:32:47.659Z,3.10
2022-08-26T21:35:14.555Z,4.23
2022-08-26T21:37:41.389Z,4.30
2022-08-26T21:40:08.831Z,5.53
2022-08-26T21:42:35.959Z,5.50
2022-08-26T21:45:04.241Z,5.17
2022-08-26T21:47:32.599Z,4.93
2022-08-26T21:49:59.533Z,5.30
2022-08-26T21:52:26.475Z,6.00
2022-08-26T21:54:58.607Z,4.90
2022-08-26T21:57:25.955Z,4.53
2022-08-26T21:59:52.923Z,4.70
2022-08-26T22:02:20.715Z,4.63
2022-08-26T22:04:48.959Z,5.63
2022-08-26T22:07:17.935Z,5.00
2022-08-26T22:09:44.965Z,4.23
2022-08-26T22:12:12.351Z,3.00
2022-08-26T22:14:39.733Z,3.57
2022-08-26T22:17:06.559Z,3.73
2022-08-26T22:19:34.100Z,3.67
2022-08-26T22:22:13.026Z,3.77
2022-08-26T22:24:39.950Z,4.37
2022-08-26T22:27:06.688Z,3.80
2022-08-26T22:29:33.389Z,3.57
2022-08-26T22:32:00.921Z,4.57
2022-08-26T22:34:28.242Z,4.13
2022-08-26T22:36:55.262Z,4.17
2022-08-26T22:39:24.761Z,4.83
2022-08-26T22:41:53.529Z,3.70
2022-08-26T22:44:22.009Z,4.67
2022-08-26T22:46:50.171Z,3.60
2022-08-26T22:49:17.508Z,3.90
2022-08-26T22:51:45.363Z,4.03
2022-08-26T22:54:13.247Z,4.90
2022-08-26T22:56:40.672Z,5.03
2022-08-26T22:59:08.099Z,5.73
2022-08-26T23:01:40.615Z,4.30
2022-08-26T23:04:08.455Z,6.63
2022-08-26T23:06:37.574Z,6.67
2022-08-26T23:09:06.041Z,7.33
2022-08-26T23:11:32.799Z,7.93
2022-08-26T23:14:02.312Z,7.40
2022-08-26T23:16:41.443Z,7.60
2022-08-26T23:19:10.343Z,8.03
2022-08-26T23:21:37.129Z,8.07
2022-08-26T23:24:05.513Z,8.17
2022-08-26T23:26:32.390Z,7.60
2022-08-26T23:28:59.391Z,7.93
2022-08-26T23:31:26.123Z,9.57
2022-08-26T23:34:11.724Z,8.50
2022-08-26T23:36:38.930Z,9.13
2022-08-26T23:39:06.235Z,8.80
2022-08-26T23:41:32.974Z,9.70
2022-08-26T23:44:03.419Z,9.10
2022-08-26T23:46:31.581Z,9.97
2022-08-26T23:48:58.290Z,8.97
2022-08-26T23:51:43.375Z,9.43
2022-08-26T23:54:13.613Z,10.00
2022-08-26T23:56:40.847Z,9.00
2022-08-26T23:59:08.075Z,9.83
